Главная страница
METAR-TAF:

METAR-TAF

Аэропорты :

Борнхольм

Рённе, Дания

широта: 55-04N, долгота: 014-45E, высота над уровнем моря: 16 м

Текущие метеонаблюдения

Эта сводка был подготовлена 30 минут назад, в 10:20 UTC
Ветер 9 Узел от западный
Температура 13°C
Влажность 82%
Давление 1012 hPa
Видимость 10 км и более
небольшая облачность на высоте 1500 фута
Рассеянная облачность на высоте 20000 фута

METAR: EKRN 251020Z 26009KT 9999 FEW015 BKN200 13/10 Q1012

Время: 12:50 (10:50 UTC)

Прогноз

Эта сводка был подготовлена 2 часа и 40 минут назад, в 08:10 UTC
Прогноз действительный с 25-го 09 UTC до 25-го 18 UTC
Ветер 13 Узел от западный
Видимость 10 км и более
Отдельные облака на высоте 2000 фута

TAF: EKRN 250810Z 2509/2518 27013KT 9999 SCT020

Метеонаблюдения и прогнозы для более 4000 аэропортов (сводки METAR и TAF).

Имеющиеся станции представлены на карте желтыми и красными точками.

Чтобы увидеть название станции, наведите на нее мышь.

Затем щелкните, чтобы увидеть метеонаблюдения и метеопрогнозы.

Управление картой: чтобы увеличить масштаб, щелкните зеленые кнопки с черным крестиком; чтобы уменьшить масштаб, щелкните зеленую кнопку с тире; для просмотра соседних карт щелкайте зеленые стрелки.


METAR-TAF: